createdAt,value
2023-05-24T00:00:17.617Z,1013.77
2023-05-24T00:01:17.644Z,1013.77
2023-05-24T00:02:17.707Z,1013.78
2023-05-24T00:03:17.760Z,1013.75
2023-05-24T00:04:17.825Z,1013.78
2023-05-24T00:05:17.788Z,1013.84
2023-05-24T00:06:17.804Z,1013.78
2023-05-24T00:07:17.838Z,1013.81
2023-05-24T00:08:17.823Z,1013.83
2023-05-24T00:09:17.855Z,1013.84
2023-05-24T00:10:17.892Z,1013.83
2023-05-24T00:11:17.918Z,1013.84
2023-05-24T00:12:17.959Z,1013.88
2023-05-24T00:13:18.010Z,1013.85
2023-05-24T00:14:18.027Z,1013.87
2023-05-24T00:15:18.056Z,1013.85
2023-05-24T00:16:18.125Z,1013.86
2023-05-24T00:17:18.144Z,1013.82
2023-05-24T00:18:18.170Z,1013.81
2023-05-24T00:19:18.216Z,1013.84
2023-05-24T00:20:18.226Z,1013.85
2023-05-24T00:21:18.249Z,1013.83
2023-05-24T00:22:18.268Z,1013.82
2023-05-24T00:23:18.305Z,1013.84
2023-05-24T00:24:18.342Z,1013.85
2023-05-24T00:25:18.368Z,1013.83
2023-05-24T00:26:18.398Z,1013.90
2023-05-24T00:27:18.429Z,1013.88
2023-05-24T00:28:18.460Z,1013.88
2023-05-24T00:29:18.497Z,1013.90
2023-05-24T00:30:18.528Z,1013.91
2023-05-24T00:31:18.582Z,1013.89
2023-05-24T00:32:18.590Z,1013.89
2023-05-24T00:33:18.622Z,1013.88
2023-05-24T00:34:18.656Z,1013.88
2023-05-24T00:35:18.685Z,1013.85
2023-05-24T00:36:18.726Z,1013.88
2023-05-24T00:37:18.748Z,1013.85
2023-05-24T00:38:18.779Z,1013.84
2023-05-24T00:39:18.814Z,1013.85
2023-05-24T00:40:18.852Z,1013.87
2023-05-24T00:41:18.872Z,1013.83
2023-05-24T00:42:18.912Z,1013.86
2023-05-24T00:43:18.941Z,1013.84
2023-05-24T00:44:18.978Z,1013.85
2023-05-24T00:45:19.003Z,1013.84
2023-05-24T00:46:19.048Z,1013.85
2023-05-24T00:47:19.066Z,1013.80
2023-05-24T00:48:19.099Z,1013.87
2023-05-24T00:49:19.143Z,1013.89
2023-05-24T00:50:19.167Z,1013.85
2023-05-24T00:51:19.203Z,1013.84
2023-05-24T00:52:19.223Z,1013.85
2023-05-24T00:53:19.259Z,1013.84
2023-05-24T00:54:19.290Z,1013.86
2023-05-24T00:55:19.332Z,1013.90
2023-05-24T00:56:19.361Z,1013.89
2023-05-24T00:57:19.390Z,1013.88
2023-05-24T00:58:19.417Z,1013.90
2023-05-24T00:59:19.451Z,1013.85
2023-05-24T01:00:19.479Z,1013.81
2023-05-24T01:01:19.587Z,1013.84
2023-05-24T01:02:19.561Z,1013.84
2023-05-24T01:03:19.663Z,1013.79
2023-05-24T01:04:19.609Z,1013.82
2023-05-24T01:05:26.510Z,1013.85
2023-05-24T01:06:19.683Z,1013.85
2023-05-24T01:07:19.705Z,1013.85
2023-05-24T01:08:19.745Z,1013.89
2023-05-24T01:09:19.769Z,1013.87
2023-05-24T01:10:19.807Z,1013.88
2023-05-24T01:11:19.843Z,1013.87
2023-05-24T01:12:19.872Z,1013.87
2023-05-24T01:13:19.899Z,1013.85
2023-05-24T01:14:19.950Z,1013.88
2023-05-24T01:15:19.962Z,1013.88
2023-05-24T01:16:20.074Z,1013.88
2023-05-24T01:17:20.043Z,1013.84
2023-05-24T01:18:20.058Z,1013.81
2023-05-24T01:19:20.094Z,1013.85
2023-05-24T01:20:20.154Z,1013.85
2023-05-24T01:21:20.157Z,1013.85
2023-05-24T01:22:20.186Z,1013.86
2023-05-24T01:23:20.218Z,1013.88
2023-05-24T01:24:20.248Z,1013.90
2023-05-24T01:25:20.289Z,1013.90
2023-05-24T01:26:20.318Z,1013.94
2023-05-24T01:27:20.356Z,1013.90
2023-05-24T01:28:20.382Z,1013.94
2023-05-24T01:29:20.411Z,1013.90
2023-05-24T01:30:20.441Z,1013.90
2023-05-24T01:31:20.485Z,1013.92
2023-05-24T01:32:20.578Z,1013.91
2023-05-24T01:33:20.540Z,1013.93
2023-05-24T01:34:20.581Z,1013.93
2023-05-24T01:35:20.599Z,1013.91
2023-05-24T01:36:20.640Z,1013.92
2023-05-24T01:37:20.670Z,1013.91
2023-05-24T01:38:20.709Z,1013.92
2023-05-24T01:39:20.734Z,1013.94
2023-05-24T01:40:20.757Z,1013.89
2023-05-24T01:41:20.799Z,1013.89
2023-05-24T01:42:20.827Z,1013.94
2023-05-24T01:43:20.861Z,1013.97
2023-05-24T01:44:20.890Z,1013.94
2023-05-24T01:45:20.916Z,1013.93
2023-05-24T01:46:20.966Z,1013.98
2023-05-24T01:47:21.015Z,1013.95
2023-05-24T01:48:21.010Z,1013.94
2023-05-24T01:49:21.054Z,1013.93
2023-05-24T01:50:21.078Z,1013.98
2023-05-24T01:51:21.108Z,1013.99
2023-05-24T01:52:21.195Z,1013.95
2023-05-24T01:53:21.175Z,1013.93
2023-05-24T01:54:21.205Z,1013.98
2023-05-24T01:55:21.242Z,1013.98
2023-05-24T01:56:21.264Z,1013.96
2023-05-24T01:57:21.311Z,1013.94
2023-05-24T01:58:21.333Z,1013.99
2023-05-24T01:59:21.365Z,1013.99
2023-05-24T02:00:21.414Z,1013.96
2023-05-24T02:01:21.486Z,1013.99
2023-05-24T02:02:21.501Z,1013.97
2023-05-24T02:03:21.553Z,1013.97
2023-05-24T02:04:21.535Z,1013.98
2023-05-24T02:05:21.556Z,1013.99
2023-05-24T02:06:21.587Z,1014.00
2023-05-24T02:07:21.628Z,1014.00
2023-05-24T02:08:21.647Z,1013.94
2023-05-24T02:09:21.679Z,1014.05
2023-05-24T02:10:21.721Z,1013.99
2023-05-24T02:11:21.746Z,1013.95
2023-05-24T02:12:21.771Z,1013.97
2023-05-24T02:13:21.809Z,1013.90
2023-05-24T02:14:21.846Z,1013.94
2023-05-24T02:15:21.873Z,1013.92
2023-05-24T02:16:21.929Z,1013.98
2023-05-24T02:17:21.958Z,1013.96
2023-05-24T02:18:21.968Z,1013.96
2023-05-24T02:19:21.999Z,1013.92
2023-05-24T02:20:22.127Z,1013.92
2023-05-24T02:21:22.062Z,1013.96
2023-05-24T02:22:22.108Z,1013.90
2023-05-24T02:23:22.124Z,1013.98
2023-05-24T02:24:22.155Z,1013.96
2023-05-24T02:25:22.198Z,1013.94
2023-05-24T02:26:22.242Z,1013.91
2023-05-24T02:27:22.276Z,1013.96
2023-05-24T02:28:22.290Z,1013.90
2023-05-24T02:29:22.322Z,1013.92
2023-05-24T02:30:22.354Z,1013.95
2023-05-24T02:31:22.412Z,1013.93
2023-05-24T02:32:22.410Z,1013.94
2023-05-24T02:33:22.449Z,1013.94
2023-05-24T02:34:22.476Z,1013.88
2023-05-24T02:35:22.514Z,1013.92
2023-05-24T02:36:22.536Z,1013.91
2023-05-24T02:37:22.574Z,1013.91
2023-05-24T02:38:22.607Z,1013.94
2023-05-24T02:39:22.652Z,1013.89
2023-05-24T02:40:22.665Z,1013.88
2023-05-24T02:41:22.698Z,1013.88
2023-05-24T02:42:22.733Z,1013.86
2023-05-24T02:43:22.770Z,1013.83
2023-05-24T02:44:22.799Z,1013.86
2023-05-24T02:45:22.824Z,1013.86
2023-05-24T02:46:22.887Z,1013.85
2023-05-24T02:47:22.933Z,1013.91
2023-05-24T02:48:22.916Z,1013.83
2023-05-24T02:49:22.958Z,1013.88
2023-05-24T02:50:22.998Z,1013.84
2023-05-24T02:51:23.013Z,1013.92
2023-05-24T02:52:23.046Z,1013.86
2023-05-24T02:53:23.108Z,1013.90
2023-05-24T02:54:23.117Z,1013.96
2023-05-24T02:55:23.138Z,1013.97
2023-05-24T02:56:23.169Z,1013.93
2023-05-24T02:57:23.203Z,1013.94
2023-05-24T02:58:24.046Z,1013.94
2023-05-24T02:59:23.265Z,1013.94
2023-05-24T03:00:23.292Z,1013.93
2023-05-24T03:01:23.373Z,1014.00
2023-05-24T03:02:23.445Z,1013.95
2023-05-24T03:03:23.417Z,1013.94
2023-05-24T03:04:23.422Z,1013.93
2023-05-24T03:05:23.461Z,1013.93
2023-05-24T03:06:23.485Z,1013.95
2023-05-24T03:07:23.518Z,1013.95
2023-05-24T03:08:23.547Z,1013.96
2023-05-24T03:09:23.588Z,1013.95
2023-05-24T03:10:23.610Z,1013.99
2023-05-24T03:11:23.643Z,1013.89
2023-05-24T03:12:23.670Z,1013.88
2023-05-24T03:13:23.708Z,1013.93
2023-05-24T03:14:23.738Z,1013.93
2023-05-24T03:15:23.768Z,1013.93
2023-05-24T03:16:23.888Z,1013.97
2023-05-24T03:17:23.836Z,1013.94
2023-05-24T03:18:23.881Z,1013.90
2023-05-24T03:19:23.908Z,1013.88
2023-05-24T03:20:23.963Z,1013.93
2023-05-24T03:21:23.998Z,1013.94
2023-05-24T03:22:24.017Z,1013.93
2023-05-24T03:23:24.021Z,1013.89
2023-05-24T03:24:24.056Z,1013.93
2023-05-24T03:25:24.084Z,1014.00
2023-05-24T03:26:24.123Z,1013.94
2023-05-24T03:27:24.149Z,1013.99
2023-05-24T03:28:24.190Z,1013.96
2023-05-24T03:29:24.214Z,1013.98
2023-05-24T03:30:24.249Z,1014.00
2023-05-24T03:31:24.342Z,1013.98
2023-05-24T03:32:24.384Z,1013.99
2023-05-24T03:33:24.347Z,1014.03
2023-05-24T03:34:24.371Z,1013.97
2023-05-24T03:35:24.406Z,1014.00
2023-05-24T03:36:24.432Z,1013.97
2023-05-24T03:37:24.481Z,1013.99
2023-05-24T03:38:24.496Z,1014.00
2023-05-24T03:39:24.531Z,1013.98
2023-05-24T03:40:24.563Z,1014.00
2023-05-24T03:41:24.594Z,1014.02
2023-05-24T03:42:24.622Z,1014.03
2023-05-24T03:43:24.653Z,1014.06
2023-05-24T03:44:24.685Z,1014.05
2023-05-24T03:45:37.809Z,1014.03
2023-05-24T03:46:24.832Z,1014.04
2023-05-24T03:47:24.909Z,1014.06
2023-05-24T03:48:24.810Z,1014.01
2023-05-24T03:49:24.856Z,1014.02
2023-05-24T03:50:24.878Z,1014.04
2023-05-24T03:51:24.913Z,1014.01
2023-05-24T03:52:24.935Z,1014.12
2023-05-24T03:53:24.970Z,1014.10
2023-05-24T03:54:25.004Z,1014.14
2023-05-24T03:55:25.061Z,1014.20
2023-05-24T03:56:25.058Z,1014.22
2023-05-24T03:57:25.092Z,1014.19
2023-05-24T03:58:25.123Z,1014.16
2023-05-24T03:59:25.157Z,1014.18
2023-05-24T04:00:25.193Z,1014.20
2023-05-24T04:01:33.487Z,1014.21
2023-05-24T04:02:25.300Z,1014.21
2023-05-24T04:03:25.382Z,1014.18
2023-05-24T04:04:25.352Z,1014.22
2023-05-24T04:05:25.342Z,1014.16
2023-05-24T04:06:25.371Z,1014.16
2023-05-24T04:07:25.415Z,1014.17
2023-05-24T04:08:25.465Z,1014.17
2023-05-24T04:09:25.474Z,1014.21
2023-05-24T04:10:25.508Z,1014.17
2023-05-24T04:11:25.526Z,1014.18
2023-05-24T04:12:25.559Z,1014.22
2023-05-24T04:13:25.608Z,1014.19
2023-05-24T04:14:25.642Z,1014.25
2023-05-24T04:15:25.653Z,1014.28
2023-05-24T04:16:25.794Z,1014.26
2023-05-24T04:17:25.986Z,1014.25
2023-05-24T04:18:25.865Z,1014.26
2023-05-24T04:19:25.780Z,1014.27
2023-05-24T04:20:26.045Z,1014.25
2023-05-24T04:21:25.841Z,1014.23
2023-05-24T04:22:25.929Z,1014.26
2023-05-24T04:23:25.927Z,1014.28
2023-05-24T04:24:25.941Z,1014.30
2023-05-24T04:25:25.966Z,1014.30
2023-05-24T04:26:25.997Z,1014.30
2023-05-24T04:27:26.047Z,1014.37
2023-05-24T04:28:26.070Z,1014.39
2023-05-24T04:29:26.103Z,1014.35
2023-05-24T04:30:26.161Z,1014.31
2023-05-24T04:31:26.237Z,1014.35
2023-05-24T04:32:26.212Z,1014.35
2023-05-24T04:33:26.236Z,1014.36
2023-05-24T04:34:26.254Z,1014.36
2023-05-24T04:35:26.284Z,1014.35
2023-05-24T04:36:26.328Z,1014.36
2023-05-24T04:37:26.347Z,1014.34
2023-05-24T04:38:26.386Z,1014.35
2023-05-24T04:39:26.423Z,1014.38
2023-05-24T04:40:26.442Z,1014.40
2023-05-24T04:41:26.481Z,1014.34
2023-05-24T04:42:26.512Z,1014.39
2023-05-24T04:43:26.539Z,1014.44
2023-05-24T04:44:26.570Z,1014.44
2023-05-24T04:45:26.610Z,1014.44
2023-05-24T04:46:26.678Z,1014.45
2023-05-24T04:47:26.695Z,1014.44
2023-05-24T04:48:26.702Z,1014.49
2023-05-24T04:49:26.731Z,1014.50
2023-05-24T04:50:26.762Z,1014.54
2023-05-24T04:51:26.795Z,1014.51
2023-05-24T04:52:26.824Z,1014.50
2023-05-24T04:53:26.856Z,1014.52
2023-05-24T04:54:26.891Z,1014.55
2023-05-24T04:55:26.925Z,1014.53
2023-05-24T04:56:26.951Z,1014.53
2023-05-24T04:57:26.982Z,1014.60
2023-05-24T04:58:27.016Z,1014.61
2023-05-24T04:59:27.062Z,1014.61
2023-05-24T05:00:27.082Z,1014.65
2023-05-24T05:01:27.130Z,1014.63
2023-05-24T05:02:27.282Z,1014.62
2023-05-24T05:03:27.278Z,1014.64
2023-05-24T05:04:27.210Z,1014.63
2023-05-24T05:05:27.240Z,1014.68
2023-05-24T05:06:27.266Z,1014.68
2023-05-24T05:07:27.293Z,1014.68
2023-05-24T05:08:27.327Z,1014.68
2023-05-24T05:09:27.363Z,1014.69
2023-05-24T05:10:27.407Z,1014.75
2023-05-24T05:11:27.434Z,1014.71
2023-05-24T05:12:27.457Z,1014.71
2023-05-24T05:13:27.507Z,1014.72
2023-05-24T05:14:27.518Z,1014.73
2023-05-24T05:15:27.559Z,1014.75
2023-05-24T05:16:27.608Z,1014.75
2023-05-24T05:17:27.615Z,1014.81
2023-05-24T05:18:27.655Z,1014.81
2023-05-24T05:19:27.683Z,1014.82
2023-05-24T05:20:27.801Z,1014.84
2023-05-24T05:21:27.742Z,1014.84
2023-05-24T05:22:29.417Z,1014.85
2023-05-24T05:23:27.806Z,1014.84
2023-05-24T05:24:27.839Z,1014.83
2023-05-24T05:25:27.867Z,1014.81
2023-05-24T05:26:27.915Z,1014.78
2023-05-24T05:27:27.966Z,1014.80
2023-05-24T05:28:27.961Z,1014.84
2023-05-24T05:29:27.992Z,1014.89
2023-05-24T05:30:28.071Z,1014.87
2023-05-24T05:31:28.053Z,1014.86
2023-05-24T05:32:28.221Z,1014.92
2023-05-24T05:33:28.176Z,1014.89
2023-05-24T05:34:28.153Z,1014.98
2023-05-24T05:35:28.183Z,1014.89
2023-05-24T05:36:28.216Z,1014.91
2023-05-24T05:37:28.249Z,1014.89
2023-05-24T05:38:28.280Z,1014.92
2023-05-24T05:39:28.322Z,1014.95
2023-05-24T05:40:28.350Z,1014.92
2023-05-24T05:41:28.380Z,1014.94
2023-05-24T05:42:28.410Z,1014.97
2023-05-24T05:43:28.442Z,1014.95
2023-05-24T05:44:28.469Z,1014.94
2023-05-24T05:45:28.506Z,1014.99
2023-05-24T05:46:28.554Z,1014.98
2023-05-24T05:47:28.586Z,1015.00
2023-05-24T05:48:28.621Z,1015.00
2023-05-24T05:49:28.631Z,1015.07
2023-05-24T05:50:28.666Z,1015.05
2023-05-24T05:51:28.695Z,1015.09
2023-05-24T05:52:28.736Z,1015.09
2023-05-24T05:53:28.761Z,1015.10
2023-05-24T05:54:28.847Z,1015.11
2023-05-24T05:55:28.819Z,1015.10
2023-05-24T05:56:28.862Z,1015.18
2023-05-24T05:57:28.884Z,1015.14
2023-05-24T05:58:28.916Z,1015.14
2023-05-24T05:59:28.953Z,1015.18
2023-05-24T06:00:28.985Z,1015.14
2023-05-24T06:01:29.014Z,1015.14
2023-05-24T06:02:29.118Z,1015.18
2023-05-24T06:03:29.280Z,1015.18
2023-05-24T06:04:29.162Z,1015.18
2023-05-24T06:05:29.138Z,1015.20
2023-05-24T06:06:29.169Z,1015.18
2023-05-24T06:07:29.198Z,1015.19
2023-05-24T06:08:29.249Z,1015.20
2023-05-24T06:09:29.261Z,1015.15
2023-05-24T06:10:29.381Z,1015.17
2023-05-24T06:11:29.324Z,1015.20
2023-05-24T06:12:29.361Z,1015.21
2023-05-24T06:13:29.391Z,1015.26
2023-05-24T06:14:29.422Z,1015.23
2023-05-24T06:15:29.501Z,1015.28
2023-05-24T06:16:29.521Z,1015.26
2023-05-24T06:17:29.550Z,1015.27
2023-05-24T06:18:29.549Z,1015.31
2023-05-24T06:19:29.596Z,1015.32
2023-05-24T06:20:29.742Z,1015.33
2023-05-24T06:21:29.650Z,1015.30
2023-05-24T06:22:29.685Z,1015.34
2023-05-24T06:23:29.712Z,1015.34
2023-05-24T06:24:29.772Z,1015.32
2023-05-24T06:25:29.771Z,1015.35
2023-05-24T06:26:29.815Z,1015.39
2023-05-24T06:27:29.836Z,1015.39
2023-05-24T06:28:29.900Z,1015.41
2023-05-24T06:29:29.914Z,1015.43
2023-05-24T06:30:30.050Z,1015.44
2023-05-24T06:31:29.988Z,1015.40
2023-05-24T06:32:30.063Z,1015.45
2023-05-24T06:33:30.029Z,1015.44
2023-05-24T06:34:30.061Z,1015.39
2023-05-24T06:35:30.091Z,1015.41
2023-05-24T06:36:30.132Z,1015.37
2023-05-24T06:37:30.159Z,1015.44
2023-05-24T06:38:30.192Z,1015.39
2023-05-24T06:39:30.249Z,1015.46
2023-05-24T06:40:30.261Z,1015.44
2023-05-24T06:41:30.284Z,1015.45
2023-05-24T06:42:30.320Z,1015.48
2023-05-24T06:43:30.351Z,1015.45
2023-05-24T06:44:30.387Z,1015.44
2023-05-24T06:45:30.418Z,1015.46
2023-05-24T06:46:30.527Z,1015.48
2023-05-24T06:47:30.674Z,1015.48
2023-05-24T06:48:30.630Z,1015.45
2023-05-24T06:49:30.553Z,1015.56
2023-05-24T06:50:30.581Z,1015.64
2023-05-24T06:51:30.614Z,1015.60
2023-05-24T06:52:30.642Z,1015.61
2023-05-24T06:53:30.674Z,1015.60
2023-05-24T06:54:30.707Z,1015.66
2023-05-24T06:55:30.737Z,1015.64
2023-05-24T06:56:30.772Z,1015.62
2023-05-24T06:57:30.807Z,1015.62
2023-05-24T06:58:30.839Z,1015.71
2023-05-24T06:59:30.870Z,1015.72
2023-05-24T07:00:30.898Z,1015.69
2023-05-24T07:01:30.989Z,1015.73
2023-05-24T07:02:31.011Z,1015.73
2023-05-24T07:03:31.009Z,1015.73
2023-05-24T07:04:31.080Z,1015.76
2023-05-24T07:05:31.062Z,1015.74
2023-05-24T07:06:31.093Z,1015.72
2023-05-24T07:07:31.128Z,1015.68
2023-05-24T07:08:31.158Z,1015.68
2023-05-24T07:09:31.189Z,1015.72
2023-05-24T07:10:31.224Z,1015.68
2023-05-24T07:11:31.307Z,1015.72
2023-05-24T07:12:31.288Z,1015.72
2023-05-24T07:13:31.325Z,1015.74
2023-05-24T07:14:31.361Z,1015.77
2023-05-24T07:15:31.390Z,1015.81
2023-05-24T07:16:31.445Z,1015.82
2023-05-24T07:17:31.481Z,1015.76
2023-05-24T07:18:31.489Z,1015.73
2023-05-24T07:19:31.526Z,1015.84
2023-05-24T07:20:31.583Z,1015.81
2023-05-24T07:21:31.579Z,1015.83
2023-05-24T07:22:31.622Z,1015.84
2023-05-24T07:23:31.649Z,1015.86
2023-05-24T07:24:31.678Z,1015.88
2023-05-24T07:25:31.713Z,1015.85
2023-05-24T07:26:31.756Z,1015.86
2023-05-24T07:27:31.789Z,1015.82
2023-05-24T07:28:31.809Z,1015.86
2023-05-24T07:29:31.845Z,1015.91
2023-05-24T07:30:32.961Z,1015.91
2023-05-24T07:31:31.906Z,1015.90
2023-05-24T07:32:32.029Z,1015.91
2023-05-24T07:33:32.003Z,1015.92
2023-05-24T07:34:32.002Z,1015.93
2023-05-24T07:35:32.109Z,1015.92
2023-05-24T07:36:34.726Z,1015.95
2023-05-24T07:37:32.104Z,1015.98
2023-05-24T07:38:32.140Z,1015.98
2023-05-24T07:39:32.170Z,1016.03
2023-05-24T07:40:32.205Z,1015.98
2023-05-24T07:41:32.234Z,1016.04
2023-05-24T07:42:32.274Z,1016.09
2023-05-24T07:43:32.301Z,1016.01
2023-05-24T07:44:32.344Z,1016.04
2023-05-24T07:45:32.374Z,1016.07
2023-05-24T07:46:32.421Z,1016.08
2023-05-24T07:47:32.464Z,1016.08
2023-05-24T07:48:32.479Z,1016.13
2023-05-24T07:49:32.504Z,1016.10
2023-05-24T07:50:32.535Z,1016.09
2023-05-24T07:51:32.573Z,1016.11
2023-05-24T07:52:32.598Z,1016.11
2023-05-24T07:53:32.630Z,1016.15
2023-05-24T07:54:32.663Z,1016.14
2023-05-24T07:55:32.694Z,1016.19
2023-05-24T07:56:32.743Z,1016.20
2023-05-24T07:57:32.766Z,1016.15
2023-05-24T07:58:32.793Z,1016.16
2023-05-24T07:59:32.827Z,1016.16
2023-05-24T08:00:32.877Z,1016.17
2023-05-24T08:01:32.891Z,1016.17
2023-05-24T08:02:32.981Z,1016.17
2023-05-24T08:03:33.044Z,1016.24
2023-05-24T08:04:33.002Z,1016.22
2023-05-24T08:05:33.029Z,1016.22
2023-05-24T08:06:33.140Z,1016.19
2023-05-24T08:07:33.152Z,1016.21
2023-05-24T08:08:33.624Z,1016.25
2023-05-24T08:09:33.160Z,1016.23
2023-05-24T08:10:33.192Z,1016.24
2023-05-24T08:11:33.222Z,1016.25
2023-05-24T08:12:33.258Z,1016.25
2023-05-24T08:13:33.290Z,1016.16
2023-05-24T08:14:33.323Z,1016.19
2023-05-24T08:15:33.369Z,1016.16
2023-05-24T08:16:33.461Z,1016.18
2023-05-24T08:17:33.465Z,1016.20
2023-05-24T08:18:33.456Z,1016.24
2023-05-24T08:19:33.491Z,1016.28
2023-05-24T08:20:33.553Z,1016.28
2023-05-24T08:21:33.577Z,1016.30
2023-05-24T08:22:33.585Z,1016.30
2023-05-24T08:23:33.635Z,1016.35
2023-05-24T08:24:33.654Z,1016.30
2023-05-24T08:25:33.692Z,1016.29
2023-05-24T08:26:33.750Z,1016.33
2023-05-24T08:27:33.786Z,1016.30
2023-05-24T08:28:33.842Z,1016.33
2023-05-24T08:29:33.814Z,1016.34
2023-05-24T08:30:33.879Z,1016.30
2023-05-24T08:31:33.914Z,1016.32
2023-05-24T08:32:34.004Z,1016.28
2023-05-24T08:33:34.010Z,1016.31
2023-05-24T08:34:34.026Z,1016.28
2023-05-24T08:35:34.008Z,1016.37
2023-05-24T08:36:34.064Z,1016.36
2023-05-24T08:37:34.082Z,1016.39
2023-05-24T08:38:34.118Z,1016.40
2023-05-24T08:39:34.173Z,1016.43
2023-05-24T08:40:34.177Z,1016.42
2023-05-24T08:41:34.212Z,1016.44
2023-05-24T08:42:34.249Z,1016.43
2023-05-24T08:43:34.287Z,1016.43
2023-05-24T08:44:34.310Z,1016.39
2023-05-24T08:45:34.348Z,1016.42
2023-05-24T08:46:34.448Z,1016.45
2023-05-24T08:47:34.478Z,1016.45
2023-05-24T08:48:34.521Z,1016.44
2023-05-24T08:49:34.481Z,1016.43
2023-05-24T08:50:34.513Z,1016.44
2023-05-24T08:51:34.545Z,1016.46
2023-05-24T08:52:34.581Z,1016.44
2023-05-24T08:53:34.611Z,1016.48
2023-05-24T08:54:34.645Z,1016.49
2023-05-24T08:55:34.699Z,1016.48
2023-05-24T08:56:34.710Z,1016.51
2023-05-24T08:57:34.821Z,1016.45
2023-05-24T08:58:34.780Z,1016.48
2023-05-24T08:59:34.805Z,1016.41
2023-05-24T09:00:34.877Z,1016.43
2023-05-24T09:01:36.699Z,1016.46
2023-05-24T09:02:34.944Z,1016.48
2023-05-24T09:03:35.048Z,1016.52
2023-05-24T09:04:34.971Z,1016.52
2023-05-24T09:05:35.008Z,1016.51
2023-05-24T09:06:35.039Z,1016.52
2023-05-24T09:07:35.076Z,1016.58
2023-05-24T09:08:35.162Z,1016.64
2023-05-24T09:09:35.136Z,1016.64
2023-05-24T09:10:52.371Z,1016.59
2023-05-24T09:11:36.321Z,1016.67
2023-05-24T09:12:38.133Z,1016.67
2023-05-24T09:13:35.268Z,1016.64
2023-05-24T09:14:35.301Z,1016.65
2023-05-24T09:15:35.374Z,1016.64
2023-05-24T09:16:35.407Z,1016.61
2023-05-24T09:17:35.481Z,1016.66
2023-05-24T09:18:35.437Z,1016.64
2023-05-24T09:19:35.465Z,1016.60
2023-05-24T09:20:35.519Z,1016.57
2023-05-24T09:21:35.530Z,1016.62
2023-05-24T09:22:38.153Z,1016.60
2023-05-24T09:23:35.598Z,1016.62
2023-05-24T09:24:35.627Z,1016.62
2023-05-24T09:25:35.671Z,1016.60
2023-05-24T09:26:35.690Z,1016.64
2023-05-24T09:27:35.734Z,1016.63
2023-05-24T09:28:35.761Z,1016.58
2023-05-24T09:29:35.805Z,1016.59
2023-05-24T09:30:35.839Z,1016.59
2023-05-24T09:31:35.955Z,1016.64
2023-05-24T09:32:35.947Z,1016.58
2023-05-24T09:33:35.925Z,1016.59
2023-05-24T09:34:35.955Z,1016.62
2023-05-24T09:35:35.985Z,1016.64
2023-05-24T09:36:36.020Z,1016.63
2023-05-24T09:37:36.051Z,1016.62
2023-05-24T09:38:36.315Z,1016.63
2023-05-24T09:39:36.122Z,1016.61
2023-05-24T09:40:36.149Z,1016.63
2023-05-24T09:41:36.186Z,1016.66
2023-05-24T09:42:36.223Z,1016.64
2023-05-24T09:43:36.364Z,1016.65
2023-05-24T09:44:36.278Z,1016.61
2023-05-24T09:45:36.313Z,1016.59
2023-05-24T09:46:36.413Z,1016.58
2023-05-24T09:47:36.462Z,1016.60
2023-05-24T09:48:36.415Z,1016.65
2023-05-24T09:49:36.446Z,1016.66
2023-05-24T09:50:36.476Z,1016.64
2023-05-24T09:51:36.600Z,1016.71
2023-05-24T09:52:36.544Z,1016.64
2023-05-24T09:53:36.603Z,1016.67
2023-05-24T09:54:36.608Z,1016.66
2023-05-24T09:55:36.682Z,1016.73
2023-05-24T09:56:36.684Z,1016.73
2023-05-24T09:57:36.709Z,1016.70
2023-05-24T09:58:36.763Z,1016.72
2023-05-24T09:59:36.785Z,1016.75
2023-05-24T10:00:36.827Z,1016.73
2023-05-24T10:01:36.911Z,1016.74
2023-05-24T10:02:51.478Z,1016.73
2023-05-24T10:03:36.988Z,1016.73
2023-05-24T10:04:37.001Z,1016.71
2023-05-24T10:05:37.025Z,1016.71
2023-05-24T10:06:37.027Z,1016.76
2023-05-24T10:07:37.036Z,1016.70
2023-05-24T10:08:37.118Z,1016.76
2023-05-24T10:09:37.104Z,1016.74
2023-05-24T10:10:37.151Z,1016.75
2023-05-24T10:11:37.181Z,1016.82
2023-05-24T10:12:37.222Z,1016.78
2023-05-24T10:13:37.239Z,1016.81
2023-05-24T10:14:37.273Z,1016.84
2023-05-24T10:15:37.309Z,1016.82
2023-05-24T10:16:37.377Z,1016.83
2023-05-24T10:17:37.414Z,1016.84
2023-05-24T10:18:37.405Z,1016.81
2023-05-24T10:19:37.438Z,1016.78
2023-05-24T10:20:37.568Z,1016.79
2023-05-24T10:21:37.602Z,1016.77
2023-05-24T10:22:37.536Z,1016.85
2023-05-24T10:23:37.573Z,1016.84
2023-05-24T10:24:37.605Z,1016.77
2023-05-24T10:25:37.634Z,1016.82
2023-05-24T10:26:37.695Z,1016.82
2023-05-24T10:27:37.700Z,1016.84
2023-05-24T10:28:37.730Z,1016.79
2023-05-24T10:29:37.766Z,1016.81
2023-05-24T10:30:37.924Z,1016.77
2023-05-24T10:31:37.983Z,1016.79
2023-05-24T10:32:37.909Z,1016.78
2023-05-24T10:33:37.903Z,1016.76
2023-05-24T10:34:37.932Z,1016.79
2023-05-24T10:35:38.016Z,1016.80
2023-05-24T10:36:38.010Z,1016.89
2023-05-24T10:37:38.045Z,1016.84
2023-05-24T10:38:38.076Z,1016.78
2023-05-24T10:39:38.100Z,1016.83
2023-05-24T10:40:38.144Z,1016.88
2023-05-24T10:41:38.165Z,1016.86
2023-05-24T10:42:38.202Z,1016.88
2023-05-24T10:43:38.252Z,1016.90
2023-05-24T10:44:38.265Z,1016.85
2023-05-24T10:45:38.302Z,1016.82
2023-05-24T10:46:38.510Z,1016.91
2023-05-24T10:47:39.155Z,1016.84
2023-05-24T10:48:38.397Z,1016.86
2023-05-24T10:49:38.441Z,1016.87
2023-05-24T10:50:38.473Z,1016.84
2023-05-24T10:51:39.013Z,1016.88
2023-05-24T10:52:38.534Z,1016.85
2023-05-24T10:53:38.569Z,1016.85
2023-05-24T10:54:41.120Z,1016.88
2023-05-24T10:55:38.635Z,1016.91
2023-05-24T10:56:38.673Z,1016.92
2023-05-24T10:57:38.700Z,1016.94
2023-05-24T10:58:38.738Z,1016.94
2023-05-24T10:59:38.786Z,1016.97
2023-05-24T11:00:38.808Z,1016.93
2023-05-24T11:01:38.888Z,1016.94
2023-05-24T11:02:38.882Z,1016.95
2023-05-24T11:03:39.036Z,1016.96
2023-05-24T11:04:38.960Z,1016.96
2023-05-24T11:05:39.026Z,1016.95
2023-05-24T11:06:39.008Z,1016.97
2023-05-24T11:07:39.042Z,1016.95
2023-05-24T11:08:39.081Z,1016.97
2023-05-24T11:09:39.111Z,1016.97
2023-05-24T11:10:39.140Z,1016.97
2023-05-24T11:11:39.179Z,1016.95
2023-05-24T11:12:39.213Z,1016.95
2023-05-24T11:13:39.255Z,1016.95
2023-05-24T11:14:39.286Z,1016.95
2023-05-24T11:15:39.318Z,1016.91
2023-05-24T11:16:40.171Z,1016.89
2023-05-24T11:17:40.907Z,1016.93
2023-05-24T11:18:39.417Z,1016.93
2023-05-24T11:19:39.497Z,1016.94
2023-05-24T11:20:39.624Z,1016.94
2023-05-24T11:21:39.523Z,1016.93
2023-05-24T11:22:39.553Z,1016.90
2023-05-24T11:23:39.585Z,1016.91
2023-05-24T11:24:39.618Z,1016.88
2023-05-24T11:25:39.680Z,1016.86
2023-05-24T11:26:39.687Z,1016.93
2023-05-24T11:27:39.721Z,1016.86
2023-05-24T11:28:39.773Z,1016.90
2023-05-24T11:29:39.789Z,1016.92
2023-05-24T11:30:39.844Z,1016.91
2023-05-24T11:31:43.272Z,1016.91
2023-05-24T11:32:39.939Z,1016.94
2023-05-24T11:33:39.926Z,1016.94
2023-05-24T11:34:39.968Z,1016.94
2023-05-24T11:35:39.996Z,1016.94
2023-05-24T11:36:40.027Z,1016.90
2023-05-24T11:38:40.096Z,1016.89
2023-05-24T11:39:40.128Z,1016.87
2023-05-24T11:40:40.233Z,1016.87
2023-05-24T11:41:40.195Z,1016.81
2023-05-24T11:42:40.232Z,1016.83
2023-05-24T11:43:40.267Z,1016.86
2023-05-24T11:44:40.303Z,1016.83
2023-05-24T11:45:40.368Z,1016.81
2023-05-24T11:46:40.381Z,1016.84
2023-05-24T11:47:40.437Z,1016.85
2023-05-24T11:48:42.182Z,1016.88
2023-05-24T11:49:40.484Z,1016.84
2023-05-24T11:50:49.480Z,1016.87
2023-05-24T11:51:40.558Z,1016.88
2023-05-24T11:52:40.573Z,1016.89
2023-05-24T11:53:40.623Z,1016.87
2023-05-24T11:54:40.640Z,1016.87
2023-05-24T11:55:40.821Z,1016.93
2023-05-24T11:56:40.709Z,1016.92
2023-05-24T11:57:40.748Z,1016.95
2023-05-24T11:58:40.781Z,1016.91
2023-05-24T11:59:40.818Z,1016.92
2023-05-24T12:00:41.065Z,1016.95
2023-05-24T12:01:40.889Z,1017.00
2023-05-24T12:02:40.946Z,1016.98
2023-05-24T12:03:41.123Z,1017.02
2023-05-24T12:04:41.035Z,1017.04
2023-05-24T12:05:41.031Z,1016.99
2023-05-24T12:06:41.077Z,1017.02